createdAt,value
2017-08-23T00:01:58.912Z,17.80
2017-08-23T00:04:26.424Z,17.80
2017-08-23T00:06:53.997Z,17.80
2017-08-23T00:09:21.564Z,17.70
2017-08-23T00:11:49.852Z,17.70
2017-08-23T00:14:17.384Z,17.70
2017-08-23T00:16:44.881Z,17.70
2017-08-23T00:19:12.525Z,17.70
2017-08-23T00:21:40.037Z,17.60
2017-08-23T00:24:07.632Z,17.70
2017-08-23T00:26:35.297Z,17.60
2017-08-23T00:29:02.784Z,17.60
2017-08-23T00:31:30.318Z,17.50
2017-08-23T00:33:57.832Z,17.50
2017-08-23T00:36:25.440Z,17.50
2017-08-23T00:38:52.979Z,17.50
2017-08-23T00:41:20.471Z,17.50
2017-08-23T00:43:47.964Z,17.50
2017-08-23T00:46:15.472Z,17.50
2017-08-23T00:48:42.961Z,17.50
2017-08-23T00:51:10.571Z,17.50
2017-08-23T00:53:38.121Z,17.50
2017-08-23T00:56:05.666Z,17.50
2017-08-23T00:58:33.164Z,17.50
2017-08-23T01:01:00.697Z,17.50
2017-08-23T01:03:28.188Z,17.50
2017-08-23T01:05:55.684Z,17.40
2017-08-23T01:08:23.271Z,17.40
2017-08-23T01:10:50.796Z,17.40
2017-08-23T01:13:18.287Z,17.40
2017-08-23T01:15:45.804Z,17.40
2017-08-23T01:18:13.402Z,17.40
2017-08-23T01:20:40.889Z,17.40
2017-08-23T01:23:08.380Z,17.40
2017-08-23T01:25:35.897Z,17.40
2017-08-23T01:28:03.380Z,17.40
2017-08-23T01:30:30.902Z,17.40
2017-08-23T01:32:58.387Z,17.40
2017-08-23T01:35:25.880Z,17.30
2017-08-23T01:37:53.456Z,17.30
2017-08-23T01:40:20.991Z,17.30
2017-08-23T01:42:48.481Z,17.30
2017-08-23T01:45:15.988Z,17.30
2017-08-23T01:47:43.504Z,17.30
2017-08-23T01:50:11.012Z,17.30
2017-08-23T01:52:38.500Z,17.30
2017-08-23T01:55:05.995Z,17.30
2017-08-23T01:57:33.501Z,17.30
2017-08-23T02:00:01.008Z,17.30
2017-08-23T02:02:28.521Z,17.30
2017-08-23T02:04:56.093Z,17.30
2017-08-23T02:07:23.654Z,17.30
2017-08-23T02:09:51.149Z,17.30
2017-08-23T02:12:18.641Z,17.30
2017-08-23T02:14:46.231Z,17.30
2017-08-23T02:17:13.716Z,17.30
2017-08-23T02:19:41.234Z,17.30
2017-08-23T02:22:08.793Z,17.30
2017-08-23T02:24:36.282Z,17.30
2017-08-23T02:27:03.806Z,17.30
2017-08-23T02:29:31.308Z,17.40
2017-08-23T02:31:58.826Z,17.40
2017-08-23T02:34:26.389Z,17.40
2017-08-23T02:36:53.941Z,17.40
2017-08-23T02:39:21.439Z,17.40
2017-08-23T02:41:48.940Z,17.40
2017-08-23T02:44:16.512Z,17.40
2017-08-23T02:46:44.024Z,17.40
2017-08-23T02:49:11.520Z,17.40
2017-08-23T02:51:39.084Z,17.40
2017-08-23T02:54:06.644Z,17.40
2017-08-23T02:56:34.899Z,17.40
2017-08-23T02:59:02.456Z,17.40
2017-08-23T03:01:29.953Z,17.40
2017-08-23T03:03:57.624Z,17.30
2017-08-23T03:06:25.170Z,17.30
2017-08-23T03:08:52.689Z,17.30
2017-08-23T03:11:20.205Z,17.30
2017-08-23T03:13:47.697Z,17.30
2017-08-23T03:16:15.184Z,17.30
2017-08-23T03:18:42.701Z,17.30
2017-08-23T03:21:10.189Z,17.30
2017-08-23T03:23:37.711Z,17.30
2017-08-23T03:26:05.205Z,17.30
2017-08-23T03:28:32.695Z,17.30
2017-08-23T03:31:00.256Z,17.30
2017-08-23T03:33:27.760Z,17.30
2017-08-23T03:35:55.278Z,17.30
2017-08-23T03:38:22.781Z,17.20
2017-08-23T03:40:50.303Z,17.20
2017-08-23T03:43:17.817Z,17.20
2017-08-23T03:45:45.306Z,17.20
2017-08-23T03:48:12.836Z,17.20
2017-08-23T03:50:40.387Z,17.20
2017-08-23T03:53:07.944Z,17.20
2017-08-23T03:55:35.468Z,17.20
2017-08-23T03:58:02.956Z,17.20
2017-08-23T04:00:30.532Z,17.20
2017-08-23T04:02:58.015Z,17.10
2017-08-23T04:05:25.637Z,17.10
2017-08-23T04:07:53.186Z,17.20
2017-08-23T04:10:20.757Z,17.20
2017-08-23T04:12:48.319Z,17.20
2017-08-23T04:15:15.812Z,17.10
2017-08-23T04:17:43.334Z,17.10
2017-08-23T04:20:10.836Z,17.10
2017-08-23T04:22:38.329Z,17.10
2017-08-23T04:25:05.857Z,17.10
2017-08-23T04:27:33.457Z,17.10
2017-08-23T04:30:00.977Z,17.10
2017-08-23T04:32:28.579Z,17.10
2017-08-23T04:34:56.120Z,17.10
2017-08-23T04:37:23.696Z,17.10
2017-08-23T04:39:51.252Z,17.20
2017-08-23T04:42:18.787Z,17.20
2017-08-23T04:44:46.273Z,17.10
2017-08-23T04:47:13.763Z,17.20
2017-08-23T04:49:41.277Z,17.20
2017-08-23T04:52:08.823Z,17.20
2017-08-23T04:54:36.358Z,17.20
2017-08-23T04:57:03.957Z,17.20
2017-08-23T04:59:31.451Z,17.20
2017-08-23T05:01:59.061Z,17.30
2017-08-23T05:04:26.549Z,17.20
2017-08-23T05:06:54.060Z,17.30
2017-08-23T05:09:21.548Z,17.30
2017-08-23T05:11:49.033Z,17.30
2017-08-23T05:14:16.546Z,17.30
2017-08-23T05:16:44.068Z,17.30
2017-08-23T05:19:11.661Z,17.40
2017-08-23T05:21:39.146Z,17.40
2017-08-23T05:24:06.676Z,17.40
2017-08-23T05:26:35.061Z,17.50
2017-08-23T05:29:02.552Z,17.50
2017-08-23T05:31:30.072Z,17.50
2017-08-23T05:33:58.564Z,17.50
2017-08-23T05:36:26.087Z,17.50
2017-08-23T05:38:53.623Z,17.60
2017-08-23T05:41:21.137Z,17.60
2017-08-23T05:43:48.685Z,17.60
2017-08-23T05:46:16.204Z,17.60
2017-08-23T05:48:43.715Z,17.70
2017-08-23T05:51:11.229Z,17.70
2017-08-23T05:53:38.716Z,17.70
2017-08-23T05:56:06.283Z,17.70
2017-08-23T05:58:33.844Z,17.80
2017-08-23T06:01:01.348Z,17.80
2017-08-23T06:03:28.862Z,17.80
2017-08-23T06:05:56.349Z,17.90
2017-08-23T06:08:23.871Z,17.90
2017-08-23T06:10:51.425Z,18.00
2017-08-23T06:13:18.987Z,18.00
2017-08-23T06:15:46.500Z,18.00
2017-08-23T06:18:14.006Z,18.10
2017-08-23T06:20:41.492Z,18.10
2017-08-23T06:23:09.001Z,18.10
2017-08-23T06:25:36.494Z,18.20
2017-08-23T06:28:04.002Z,18.20
2017-08-23T06:30:31.492Z,18.30
2017-08-23T06:32:59.058Z,18.30
2017-08-23T06:35:26.605Z,18.50
2017-08-23T06:37:54.103Z,18.50
2017-08-23T06:40:21.625Z,18.50
2017-08-23T06:42:49.126Z,18.70
2017-08-23T06:45:16.729Z,18.80
2017-08-23T06:47:44.220Z,18.90
2017-08-23T06:50:11.737Z,19.10
2017-08-23T06:52:39.291Z,19.20
2017-08-23T06:55:06.790Z,19.30
2017-08-23T06:57:34.303Z,19.30
2017-08-23T07:00:01.885Z,19.40
2017-08-23T07:02:29.404Z,19.40
2017-08-23T07:04:56.888Z,19.40
2017-08-23T07:07:24.449Z,19.30
2017-08-23T07:09:51.965Z,19.40
2017-08-23T07:12:19.460Z,19.40
2017-08-23T07:14:46.973Z,19.40
2017-08-23T07:17:14.466Z,19.50
2017-08-23T07:19:42.028Z,19.50
2017-08-23T07:22:09.544Z,19.60
2017-08-23T07:24:37.058Z,19.60
2017-08-23T07:27:04.589Z,19.70
2017-08-23T07:29:32.084Z,19.80
2017-08-23T07:31:59.577Z,19.90
2017-08-23T07:34:27.120Z,19.90
2017-08-23T07:36:54.616Z,19.90
2017-08-23T07:39:22.524Z,19.90
2017-08-23T07:41:50.020Z,20.00
2017-08-23T07:44:17.540Z,20.10
2017-08-23T07:46:45.062Z,20.10
2017-08-23T07:49:13.346Z,20.10
2017-08-23T07:51:40.846Z,20.20
2017-08-23T07:54:08.380Z,20.20
2017-08-23T07:56:35.940Z,20.30
2017-08-23T07:59:03.448Z,20.30
2017-08-23T08:01:30.948Z,20.40
2017-08-23T08:03:58.447Z,20.40
2017-08-23T08:06:25.955Z,20.50
2017-08-23T08:08:53.502Z,20.60
2017-08-23T08:11:21.034Z,20.60
2017-08-23T08:13:48.620Z,20.70
2017-08-23T08:16:16.180Z,20.80
2017-08-23T08:18:43.707Z,20.90
2017-08-23T08:21:11.196Z,20.90
2017-08-23T08:23:38.695Z,21.00
2017-08-23T08:26:06.225Z,21.10
2017-08-23T08:28:33.761Z,21.20
2017-08-23T08:31:01.287Z,21.30
2017-08-23T08:33:28.781Z,21.40
2017-08-23T08:35:56.344Z,21.50
2017-08-23T08:38:24.621Z,21.50
2017-08-23T08:40:52.127Z,21.60
2017-08-23T08:43:19.651Z,21.60
2017-08-23T08:45:47.195Z,21.80
2017-08-23T08:48:14.755Z,21.80
2017-08-23T08:50:42.249Z,21.90
2017-08-23T08:53:09.755Z,21.90
2017-08-23T08:55:37.277Z,22.00
2017-08-23T08:58:04.789Z,22.10
2017-08-23T09:00:32.332Z,22.20
2017-08-23T09:02:59.904Z,22.20
2017-08-23T09:05:27.458Z,22.30
2017-08-23T09:07:55.035Z,22.40
2017-08-23T09:10:22.590Z,22.50
2017-08-23T09:12:50.113Z,22.50
2017-08-23T09:15:17.688Z,22.60
2017-08-23T09:17:45.258Z,22.70
2017-08-23T09:20:12.821Z,22.80
2017-08-23T09:22:40.361Z,22.90
2017-08-23T09:25:07.885Z,22.90
2017-08-23T09:27:35.382Z,23.00
2017-08-23T09:30:02.874Z,23.10
2017-08-23T09:32:30.390Z,23.20
2017-08-23T09:34:57.880Z,23.20
2017-08-23T09:37:25.400Z,23.40
2017-08-23T09:39:52.911Z,23.50
2017-08-23T09:42:20.416Z,23.50
2017-08-23T09:44:47.942Z,23.60
2017-08-23T09:47:15.443Z,23.70
2017-08-23T09:49:42.973Z,23.80
2017-08-23T09:52:10.468Z,23.90
2017-08-23T09:54:37.985Z,24.00
2017-08-23T09:57:05.470Z,24.00
2017-08-23T09:59:33.020Z,24.10
2017-08-23T10:02:00.534Z,24.10
2017-08-23T10:04:28.058Z,24.10
2017-08-23T10:06:55.582Z,24.20
2017-08-23T10:09:23.083Z,24.20
2017-08-23T10:11:50.617Z,24.30
2017-08-23T10:14:18.151Z,24.50
2017-08-23T10:16:45.666Z,24.60
2017-08-23T10:19:13.284Z,24.70
2017-08-23T10:21:40.785Z,24.70
2017-08-23T10:24:08.312Z,24.80
2017-08-23T10:26:35.841Z,24.80
2017-08-23T10:29:03.418Z,24.90
2017-08-23T10:31:30.933Z,25.00
2017-08-23T10:33:58.460Z,25.20
2017-08-23T10:36:25.986Z,25.30
2017-08-23T10:38:53.502Z,25.50
2017-08-23T10:41:21.008Z,25.60
2017-08-23T10:43:48.574Z,25.70
2017-08-23T10:46:16.116Z,25.90
2017-08-23T10:48:43.603Z,26.10
2017-08-23T10:51:11.141Z,26.20
2017-08-23T10:53:38.695Z,26.30
2017-08-23T10:56:06.180Z,26.40
2017-08-23T10:58:33.707Z,26.50
2017-08-23T11:01:01.249Z,26.80
2017-08-23T11:03:28.825Z,26.80
2017-08-23T11:05:56.320Z,27.00
2017-08-23T11:08:23.818Z,27.20
2017-08-23T11:10:51.336Z,27.40
2017-08-23T11:13:18.852Z,27.60
2017-08-23T11:15:46.408Z,27.70
2017-08-23T11:18:13.975Z,27.80
2017-08-23T11:20:41.481Z,27.90
2017-08-23T11:23:08.990Z,27.90
2017-08-23T11:25:36.488Z,28.10
2017-08-23T11:28:04.019Z,28.20
2017-08-23T11:30:31.506Z,28.30
2017-08-23T11:32:58.989Z,28.50
2017-08-23T11:35:26.508Z,28.70
2017-08-23T11:37:54.046Z,28.90
2017-08-23T11:40:21.572Z,28.90
2017-08-23T11:42:49.155Z,29.00
2017-08-23T11:45:16.701Z,29.20
2017-08-23T11:47:44.272Z,29.40
2017-08-23T11:50:11.773Z,29.40
2017-08-23T11:52:39.372Z,29.50
2017-08-23T11:55:06.869Z,29.60
2017-08-23T11:57:34.357Z,29.60
2017-08-23T12:00:01.876Z,29.70
2017-08-23T12:02:29.370Z,29.80
2017-08-23T12:04:56.959Z,29.70
2017-08-23T12:07:24.527Z,29.80
2017-08-23T12:09:52.016Z,30.00
2017-08-23T12:12:19.505Z,30.10
2017-08-23T12:14:47.029Z,30.10
2017-08-23T12:17:14.572Z,30.20
2017-08-23T12:19:42.060Z,30.30
2017-08-23T12:22:09.600Z,30.50
2017-08-23T12:24:37.153Z,30.60
2017-08-23T12:27:04.656Z,30.70
2017-08-23T12:29:32.171Z,30.70
2017-08-23T12:31:59.656Z,30.70
2017-08-23T12:34:27.191Z,30.90
2017-08-23T12:36:54.682Z,30.90
2017-08-23T12:39:22.282Z,31.00
2017-08-23T12:41:49.789Z,31.20
2017-08-23T12:44:17.389Z,31.20
2017-08-23T12:46:44.917Z,31.30
2017-08-23T12:49:12.418Z,31.40
2017-08-23T12:51:39.931Z,31.40
2017-08-23T12:54:07.448Z,31.50
2017-08-23T12:56:35.096Z,31.60
2017-08-23T12:59:02.625Z,31.90
2017-08-23T13:01:30.116Z,32.00
2017-08-23T13:03:57.636Z,32.10
2017-08-23T13:06:25.217Z,32.20
2017-08-23T13:08:52.793Z,32.20
2017-08-23T13:11:20.324Z,32.30
2017-08-23T13:13:47.809Z,32.30
2017-08-23T13:16:15.326Z,32.20
2017-08-23T13:18:42.853Z,32.00
2017-08-23T13:21:10.345Z,31.80
2017-08-23T13:23:37.935Z,31.70
2017-08-23T13:26:05.449Z,31.90
2017-08-23T13:28:33.025Z,32.10
2017-08-23T13:31:00.540Z,32.30
2017-08-23T13:33:28.257Z,32.50
2017-08-23T13:35:55.816Z,32.70
2017-08-23T13:38:23.369Z,32.80
2017-08-23T13:40:50.933Z,33.00
2017-08-23T13:43:18.426Z,33.00
2017-08-23T13:45:46.033Z,33.00
2017-08-23T13:48:13.533Z,33.10
2017-08-23T13:50:41.053Z,33.30
2017-08-23T13:53:08.620Z,33.40
2017-08-23T13:55:36.115Z,33.40
2017-08-23T13:58:03.727Z,33.40
2017-08-23T14:00:31.221Z,33.30
2017-08-23T14:02:58.745Z,33.20
2017-08-23T14:05:26.308Z,33.20
2017-08-23T14:07:53.853Z,33.20
2017-08-23T14:10:21.423Z,33.10
2017-08-23T14:12:48.920Z,33.10
2017-08-23T14:15:16.430Z,33.20
2017-08-23T14:17:43.926Z,33.30
2017-08-23T14:20:11.444Z,33.30
2017-08-23T14:22:38.932Z,33.30
2017-08-23T14:25:06.439Z,33.40
2017-08-23T14:27:33.932Z,33.40
2017-08-23T14:30:01.420Z,33.50
2017-08-23T14:32:28.939Z,33.50
2017-08-23T14:34:56.428Z,33.60
2017-08-23T14:37:23.947Z,33.50
2017-08-23T14:39:51.437Z,33.30
2017-08-23T14:42:18.960Z,33.30
2017-08-23T14:44:46.470Z,33.30
2017-08-23T14:47:13.954Z,33.30
2017-08-23T14:49:41.538Z,33.30
2017-08-23T14:52:09.058Z,33.30
2017-08-23T14:54:36.557Z,33.30
2017-08-23T14:57:04.080Z,33.40
2017-08-23T14:59:31.567Z,33.40
2017-08-23T15:01:59.118Z,33.40
2017-08-23T15:04:26.612Z,33.20
2017-08-23T15:06:54.156Z,33.20
2017-08-23T15:09:21.672Z,33.10
2017-08-23T15:11:49.188Z,33.10
2017-08-23T15:14:16.675Z,33.10
2017-08-23T15:16:44.220Z,33.00
2017-08-23T15:19:11.752Z,32.70
2017-08-23T15:21:39.282Z,32.60
2017-08-23T15:24:06.773Z,32.50
2017-08-23T15:26:34.316Z,32.50
2017-08-23T15:29:01.858Z,32.60
2017-08-23T15:31:29.420Z,32.50
2017-08-23T15:33:56.948Z,32.50
2017-08-23T15:36:24.458Z,32.30
2017-08-23T15:38:51.951Z,32.30
2017-08-23T15:41:19.550Z,32.20
2017-08-23T15:43:47.109Z,32.10
2017-08-23T15:46:14.628Z,32.00
2017-08-23T15:48:42.117Z,32.00
2017-08-23T15:51:09.623Z,32.00
2017-08-23T15:53:37.238Z,31.80
2017-08-23T15:56:04.804Z,31.80
2017-08-23T15:58:32.498Z,31.80
2017-08-23T16:00:59.997Z,31.70
2017-08-23T16:03:27.565Z,31.60
2017-08-23T16:05:55.136Z,31.40
2017-08-23T16:08:22.624Z,31.30
2017-08-23T16:10:50.134Z,31.10
2017-08-23T16:13:17.632Z,31.00
2017-08-23T16:15:45.156Z,30.80
2017-08-23T16:18:12.704Z,30.80
2017-08-23T16:20:40.216Z,30.70
2017-08-23T16:23:07.748Z,30.70
2017-08-23T16:25:35.244Z,30.60
2017-08-23T16:28:02.775Z,30.50
2017-08-23T16:30:30.285Z,30.40
2017-08-23T16:32:58.577Z,30.20
2017-08-23T16:35:26.105Z,30.20
2017-08-23T16:37:53.604Z,30.10
2017-08-23T16:40:21.129Z,30.00
2017-08-23T16:42:48.646Z,29.90
2017-08-23T16:45:16.165Z,29.80
2017-08-23T16:47:43.682Z,29.70
2017-08-23T16:50:11.397Z,29.60
2017-08-23T16:52:38.921Z,29.50
2017-08-23T16:55:06.425Z,29.40
2017-08-23T16:57:33.924Z,29.40
2017-08-23T17:00:01.534Z,29.30
2017-08-23T17:02:29.041Z,29.20
2017-08-23T17:04:56.579Z,29.20
2017-08-23T17:07:24.123Z,29.10
2017-08-23T17:09:51.669Z,29.00
2017-08-23T17:12:19.288Z,28.90
2017-08-23T17:14:46.792Z,28.80
2017-08-23T17:17:14.324Z,28.70
2017-08-23T17:19:41.879Z,28.60
2017-08-23T17:22:09.381Z,28.60
2017-08-23T17:24:36.926Z,28.50
2017-08-23T17:27:04.428Z,28.40
2017-08-23T17:29:31.952Z,28.40
2017-08-23T17:31:59.452Z,28.30
2017-08-23T17:34:26.965Z,28.20
2017-08-23T17:36:54.501Z,28.20
2017-08-23T17:39:22.044Z,28.10
2017-08-23T17:41:49.568Z,28.00
2017-08-23T17:44:17.069Z,27.90
2017-08-23T17:46:44.573Z,27.90
2017-08-23T17:49:12.101Z,27.80
2017-08-23T17:51:39.623Z,27.70
2017-08-23T17:54:07.208Z,27.60
2017-08-23T17:56:34.708Z,27.50
2017-08-23T17:59:02.252Z,27.40
2017-08-23T18:01:29.751Z,27.40
2017-08-23T18:03:57.284Z,27.30
2017-08-23T18:06:24.858Z,27.30
2017-08-23T18:08:52.367Z,27.20
2017-08-23T18:11:19.928Z,27.20
2017-08-23T18:13:47.423Z,27.10
2017-08-23T18:16:14.918Z,27.00
2017-08-23T18:18:42.433Z,26.90
2017-08-23T18:21:10.073Z,26.80
2017-08-23T18:23:37.595Z,26.70
2017-08-23T18:26:05.125Z,26.60
2017-08-23T18:28:32.730Z,26.40
2017-08-23T18:31:00.357Z,26.30
2017-08-23T18:33:27.850Z,26.20
2017-08-23T18:35:55.344Z,26.10
2017-08-23T18:38:22.891Z,26.00
2017-08-23T18:40:50.397Z,25.90
2017-08-23T18:43:17.928Z,25.90
2017-08-23T18:45:45.524Z,25.80
2017-08-23T18:48:13.036Z,25.70
2017-08-23T18:50:40.649Z,25.70
2017-08-23T18:53:08.189Z,25.60
2017-08-23T18:55:35.766Z,25.50
2017-08-23T18:58:03.287Z,25.40
2017-08-23T19:00:30.829Z,25.30
2017-08-23T19:02:58.347Z,25.20
2017-08-23T19:05:25.888Z,25.10
2017-08-23T19:07:53.414Z,25.00
2017-08-23T19:10:20.926Z,25.00
2017-08-23T19:12:48.455Z,24.90
2017-08-23T19:15:15.987Z,24.90
2017-08-23T19:17:43.625Z,24.80
2017-08-23T19:20:11.162Z,24.80
2017-08-23T19:22:38.695Z,24.80
2017-08-23T19:25:06.202Z,24.70
2017-08-23T19:27:33.720Z,24.60
2017-08-23T19:30:01.272Z,24.60
2017-08-23T19:32:28.819Z,24.50
2017-08-23T19:34:56.331Z,24.50
2017-08-23T19:37:23.947Z,24.40
2017-08-23T19:39:51.492Z,24.40
2017-08-23T19:42:18.989Z,24.30
2017-08-23T19:44:46.526Z,24.30
2017-08-23T19:47:14.074Z,24.20
2017-08-23T19:49:41.607Z,24.10
2017-08-23T19:52:09.109Z,24.10
2017-08-23T19:54:36.626Z,24.00
2017-08-23T19:57:04.145Z,23.90
2017-08-23T19:59:31.642Z,23.90
2017-08-23T20:01:59.153Z,23.80
2017-08-23T20:04:26.692Z,23.80
2017-08-23T20:06:54.245Z,23.70
2017-08-23T20:09:21.756Z,23.70
2017-08-23T20:11:49.285Z,23.60
2017-08-23T20:14:16.824Z,23.60
2017-08-23T20:16:44.366Z,23.60
2017-08-23T20:19:11.937Z,23.50
2017-08-23T20:21:39.592Z,23.50
2017-08-23T20:24:07.090Z,23.40
2017-08-23T20:26:34.618Z,23.40
2017-08-23T20:29:02.125Z,23.40
2017-08-23T20:31:29.690Z,23.30
2017-08-23T20:33:57.188Z,23.30
2017-08-23T20:36:24.730Z,23.20
2017-08-23T20:38:52.313Z,23.20
2017-08-23T20:41:19.834Z,23.10
2017-08-23T20:43:47.363Z,23.10
2017-08-23T20:46:14.861Z,23.10
2017-08-23T20:48:42.422Z,23.00
2017-08-23T20:51:09.959Z,23.00
2017-08-23T20:53:37.468Z,23.00
2017-08-23T20:56:04.997Z,22.90
2017-08-23T20:58:32.500Z,22.90
2017-08-23T21:01:00.050Z,22.90
2017-08-23T21:03:27.576Z,22.90
2017-08-23T21:05:55.081Z,22.80
2017-08-23T21:08:22.612Z,22.80
2017-08-23T21:10:50.138Z,22.70
2017-08-23T21:13:17.637Z,22.70
2017-08-23T21:15:45.165Z,22.60
2017-08-23T21:18:12.677Z,22.50
2017-08-23T21:20:40.211Z,22.50
2017-08-23T21:23:07.854Z,22.50
2017-08-23T21:25:35.355Z,22.40
2017-08-23T21:28:02.915Z,22.40
2017-08-23T21:30:30.416Z,22.40
2017-08-23T21:32:57.943Z,22.30
2017-08-23T21:35:25.481Z,22.20
2017-08-23T21:37:52.985Z,22.20
2017-08-23T21:40:20.519Z,22.20
2017-08-23T21:42:48.033Z,22.20
2017-08-23T21:45:15.525Z,22.20
2017-08-23T21:47:43.052Z,22.10
2017-08-23T21:50:10.542Z,22.10
2017-08-23T21:52:38.112Z,22.10
2017-08-23T21:55:05.635Z,22.10
2017-08-23T21:57:33.171Z,22.00
2017-08-23T22:00:00.713Z,22.00
2017-08-23T22:02:28.244Z,22.00
2017-08-23T22:04:55.763Z,22.00
2017-08-23T22:07:23.296Z,22.00
2017-08-23T22:09:50.813Z,21.90
2017-08-23T22:12:18.391Z,21.90
2017-08-23T22:14:45.916Z,21.90
2017-08-23T22:17:13.501Z,21.90
2017-08-23T22:19:41.060Z,21.80
2017-08-23T22:22:08.589Z,21.80
2017-08-23T22:24:36.087Z,21.80
2017-08-23T22:27:03.620Z,21.80
2017-08-23T22:29:31.140Z,21.70
2017-08-23T22:31:58.672Z,21.70
2017-08-23T22:34:26.193Z,21.70
2017-08-23T22:36:53.684Z,21.60
2017-08-23T22:39:21.218Z,21.60
2017-08-23T22:41:48.729Z,21.60
2017-08-23T22:44:16.249Z,21.60
2017-08-23T22:46:43.753Z,21.60
2017-08-23T22:49:11.282Z,21.50
2017-08-23T22:51:38.784Z,21.40
2017-08-23T22:54:06.295Z,21.40
2017-08-23T22:56:33.817Z,21.40
2017-08-23T22:59:01.313Z,21.40
2017-08-23T23:01:28.844Z,21.30
2017-08-23T23:03:56.376Z,21.30
2017-08-23T23:06:23.905Z,21.30
2017-08-23T23:08:51.496Z,21.30
2017-08-23T23:11:19.003Z,21.30
2017-08-23T23:13:47.272Z,21.30
2017-08-23T23:16:14.805Z,21.20
2017-08-23T23:18:42.364Z,21.20
2017-08-23T23:21:09.905Z,21.20
2017-08-23T23:23:37.565Z,21.20
2017-08-23T23:26:05.121Z,21.10
2017-08-23T23:28:32.690Z,21.10
2017-08-23T23:31:00.204Z,21.10
2017-08-23T23:33:27.807Z,21.10
2017-08-23T23:35:55.304Z,21.10
2017-08-23T23:38:22.840Z,21.00
2017-08-23T23:40:50.354Z,21.00
2017-08-23T23:43:17.892Z,21.00
2017-08-23T23:45:45.400Z,21.00
2017-08-23T23:48:13.061Z,20.90
2017-08-23T23:50:40.606Z,20.90
2017-08-23T23:53:08.122Z,20.90
2017-08-23T23:55:35.679Z,20.80
2017-08-23T23:58:03.181Z,20.80
